Time;durP1;ratioP1;P1;durP2;ratioP2;P2;SDS_P1;SDS_P2;PMS_P1;PMS_P2;Temp;Humidity;BMP_temperature;BMP_pressure;BME280_temperature;BME280_humidity;BME280_pressure;Samples;Min_cycle;Max_cycle;Signal;HPM_P1;HPM_P2
2022/02/21 00:02:06;;;;;;;20.90;3.40;;;;;;;4.84;78.63;99725.91;5009254;28;20036;-76
2022/02/21 00:04:32;;;;;;;17.88;3.63;;;;;;;4.80;78.17;99742.94;5008708;28;20229;-79
2022/02/21 00:06:57;;;;;;;18.00;3.75;;;;;;;4.79;76.81;99697.28;5010684;28;20049;-78
2022/02/21 00:09:22;;;;;;;23.70;4.88;;;;;;;4.75;77.96;99757.34;5010643;28;20045;-76
2022/02/21 00:11:48;;;;;;;25.88;3.75;;;;;;;4.68;76.72;99752.72;5010572;28;20034;-76
2022/02/21 00:14:13;;;;;;;22.40;3.30;;;;;;;4.67;77.47;99769.47;5010479;28;20077;-76
2022/02/21 00:16:39;;;;;;;20.52;3.78;;;;;;;4.64;74.95;99775.00;5008614;28;20038;-79
2022/02/21 00:19:04;;;;;;;23.90;4.25;;;;;;;4.61;74.36;99789.25;5011211;28;20041;-77
2022/02/21 00:21:30;;;;;;;15.30;3.03;;;;;;;4.58;74.30;99785.09;5011138;28;20331;-79
2022/02/21 00:23:56;;;;;;;29.45;3.65;;;;;;;4.55;75.10;99814.34;5010423;28;20073;-78
2022/02/21 00:26:22;;;;;;;15.25;3.25;;;;;;;4.54;76.18;99799.47;5008913;28;20370;-76
2022/02/21 00:28:48;;;;;;;19.67;3.08;;;;;;;4.55;76.66;99800.31;5010197;28;20034;-77
2022/02/21 00:31:14;;;;;;;18.63;3.88;;;;;;;4.53;78.03;99800.44;5010479;28;20128;-77
2022/02/21 00:33:40;;;;;;;16.75;2.92;;;;;;;4.59;76.04;99805.19;5010458;28;20036;-76
2022/02/21 00:36:05;;;;;;;11.00;2.60;;;;;;;4.63;75.92;99826.00;5027976;28;20534;-78
2022/02/21 00:38:31;;;;;;;16.25;3.60;;;;;;;4.62;75.29;99806.75;5013591;28;20034;-77
2022/02/21 00:40:57;;;;;;;19.23;3.13;;;;;;;4.66;73.04;99788.88;4995433;28;20042;-79
2022/02/21 00:43:23;;;;;;;15.75;2.85;;;;;;;4.65;72.13;99861.81;5012161;28;20041;-77
2022/02/21 00:45:49;;;;;;;13.30;3.75;;;;;;;4.63;72.18;99812.84;5013637;28;20034;-79
2022/02/21 00:48:14;;;;;;;20.00;5.20;;;;;;;4.57;71.63;99825.56;5012086;28;20036;-78
2022/02/21 00:50:40;;;;;;;15.93;3.78;;;;;;;4.53;72.06;99826.78;5013490;28;20125;-78
2022/02/21 00:53:05;;;;;;;24.15;3.95;;;;;;;4.54;72.36;99823.19;5012164;28;20038;-77
2022/02/21 00:55:33;;;;;;;14.93;2.58;;;;;;;4.58;73.05;99827.25;5013640;28;20207;-77
2022/02/21 00:57:59;;;;;;;13.10;2.55;;;;;;;4.60;72.33;99845.56;5013354;28;20121;-77
2022/02/21 01:00:24;;;;;;;19.08;2.65;;;;;;;4.59;72.51;99834.16;5013295;28;20064;-77
2022/02/21 01:02:49;;;;;;;15.90;3.05;;;;;;;4.64;71.97;99844.34;5013275;28;20065;-77
2022/02/21 01:05:15;;;;;;;15.90;3.47;;;;;;;4.58;71.77;99850.09;5013021;28;20117;-78
2022/02/21 01:07:40;;;;;;;23.80;4.00;;;;;;;4.58;68.53;99863.28;4995249;28;20382;-79
2022/02/21 01:10:06;;;;;;;18.38;3.25;;;;;;;4.57;68.59;99861.63;5012988;28;20036;-78
2022/02/21 01:12:32;;;;;;;21.23;4.13;;;;;;;4.54;69.63;99844.25;5013234;28;20498;-77
2022/02/21 01:14:57;;;;;;;26.40;4.40;;;;;;;4.55;70.36;99871.44;5011679;28;20382;-78
2022/02/21 01:17:23;;;;;;;16.42;2.80;;;;;;;4.54;70.46;99880.31;5013192;28;20052;-77
2022/02/21 01:19:52;;;;;;;22.27;3.97;;;;;;;4.59;69.35;99857.06;4995296;28;20093;-81
2022/02/21 01:22:17;;;;;;;19.00;3.50;;;;;;;4.53;71.34;99870.72;5012900;28;20149;-77
2022/02/21 01:24:43;;;;;;;17.10;3.42;;;;;;;4.49;71.83;99870.13;5013223;28;20057;-77
2022/02/21 01:27:09;;;;;;;21.80;3.50;;;;;;;4.48;72.84;99873.75;5012902;28;20431;-77
2022/02/21 01:29:35;;;;;;;26.30;4.22;;;;;;;4.47;73.05;99872.06;5013061;28;20056;-77
2022/02/21 01:32:00;;;;;;;20.33;3.33;;;;;;;4.46;73.02;99896.72;5012806;28;20455;-77
2022/02/21 01:34:26;;;;;;;18.42;3.08;;;;;;;4.46;71.54;99899.34;5012521;28;20084;-78
2022/02/21 01:36:54;;;;;;;16.48;2.85;;;;;;;4.42;70.62;99895.31;5012939;28;20493;-81
2022/02/21 01:39:20;;;;;;;16.15;3.20;;;;;;;4.40;69.62;99879.63;5011273;28;20037;-78
2022/02/21 01:41:46;;;;;;;18.45;2.78;;;;;;;4.38;69.66;99881.53;5012806;28;20038;-78
2022/02/21 01:44:13;;;;;;;12.35;2.10;;;;;;;4.43;67.70;99894.31;5013261;28;20034;-79
2022/02/21 01:46:40;;;;;;;15.38;2.90;;;;;;;4.38;66.68;99899.97;5011340;28;20045;-79
2022/02/21 01:49:07;;;;;;;20.02;3.28;;;;;;;4.36;66.00;99899.25;5012975;28;20137;-78
2022/02/21 01:51:33;;;;;;;23.05;3.10;;;;;;;4.35;65.51;99879.16;5012592;28;20053;-78
2022/02/21 01:54:00;;;;;;;18.00;2.90;;;;;;;4.33;65.57;99930.25;5011112;28;20038;-78
2022/02/21 01:56:26;;;;;;;13.70;2.53;;;;;;;4.40;64.27;99907.75;5013852;28;20034;-79
2022/02/21 01:58:51;;;;;;;17.00;3.40;;;;;;;4.44;65.23;99900.47;5013889;28;20179;-79
2022/02/21 02:01:16;;;;;;;15.38;3.08;;;;;;;4.47;64.98;99898.41;5011845;28;20041;-79
2022/02/21 02:03:42;;;;;;;23.88;3.47;;;;;;;4.48;65.07;99909.75;5011113;28;20054;-79
2022/02/21 02:06:10;;;;;;;21.40;3.20;;;;;;;4.43;66.13;99906.66;5011931;28;20026;-79
2022/02/21 02:08:35;;;;;;;10.18;2.60;;;;;;;4.43;64.97;99902.22;5012646;28;20058;-77
2022/02/21 02:11:01;;;;;;;15.80;3.20;;;;;;;4.47;64.11;99892.31;5010956;28;20433;-78
2022/02/21 02:13:27;;;;;;;18.98;2.92;;;;;;;4.45;64.56;99897.69;5011840;28;20041;-77
2022/02/21 02:15:54;;;;;;;21.95;3.00;;;;;;;4.51;64.43;99901.63;5011962;28;20374;-79
2022/02/21 02:18:21;;;;;;;16.88;2.65;;;;;;;4.51;64.71;99905.09;5012036;28;20033;-78
2022/02/21 02:20:46;;;;;;;9.95;2.78;;;;;;;4.53;64.83;99863.66;5010723;28;20128;-77
2022/02/21 02:23:12;;;;;;;21.30;2.83;;;;;;;4.53;65.24;99900.53;5012014;28;20057;-77
2022/02/21 02:25:39;;;;;;;19.55;3.25;;;;;;;4.57;64.45;99909.06;5010333;28;20045;-77
2022/02/21 02:28:05;;;;;;;21.65;3.35;;;;;;;4.53;65.59;99913.72;5011917;28;20049;-77
2022/02/21 02:30:31;;;;;;;25.05;3.03;;;;;;;4.50;65.35;99873.63;5011957;28;20033;-77
2022/02/21 02:32:56;;;;;;;18.83;3.28;;;;;;;4.48;64.66;99925.56;5010573;28;20048;-79
2022/02/21 02:35:22;;;;;;;15.80;3.13;;;;;;;4.43;65.24;99915.41;5011865;28;20475;-77
2022/02/21 02:37:47;;;;;;;21.42;4.38;;;;;;;4.44;65.46;99913.63;5011550;28;20052;-77
2022/02/21 02:40:15;;;;;;;22.27;2.75;;;;;;;4.37;64.74;99945.72;5013646;28;20038;-74
2022/02/21 02:42:40;;;;;;;26.48;3.83;;;;;;;4.40;63.99;99923.56;5014205;28;20030;-75
2022/02/21 02:45:06;;;;;;;14.85;2.90;;;;;;;4.39;63.39;99922.72;5014016;28;20084;-75
2022/02/21 02:47:32;;;;;;;16.63;2.60;;;;;;;4.37;61.77;99948.34;5013469;28;20040;-74
2022/02/21 02:49:57;;;;;;;13.00;2.97;;;;;;;4.39;62.49;99901.66;5013699;28;20061;-76
2022/02/21 02:52:23;;;;;;;16.13;3.10;;;;;;;4.39;63.09;99925.34;5013797;28;20084;-74
2022/02/21 02:54:48;;;;;;;18.75;3.15;;;;;;;4.35;64.61;99931.81;5014192;28;20447;-74
2022/02/21 02:57:13;;;;;;;16.52;3.45;;;;;;;4.32;65.00;99936.50;5013495;28;20445;-75
2022/02/21 02:59:39;;;;;;;21.80;3.13;;;;;;;4.29;65.25;99940.22;5013754;28;20045;-76
2022/02/21 03:02:04;;;;;;;21.13;4.43;;;;;;;4.30;65.47;99928.72;5013610;28;20446;-74
2022/02/21 03:04:30;;;;;;;20.80;3.67;;;;;;;4.23;65.94;99931.00;5013353;28;20049;-75
2022/02/21 03:06:58;;;;;;;14.15;3.25;;;;;;;4.23;64.32;99907.28;5013503;28;20040;-74
2022/02/21 03:09:25;;;;;;;23.75;3.95;;;;;;;4.21;64.33;99925.00;5013618;28;20045;-75
2022/02/21 03:11:50;;;;;;;20.35;3.55;;;;;;;4.18;65.50;99943.69;5013476;28;20044;-75
2022/02/21 03:14:16;;;;;;;24.88;3.55;;;;;;;4.19;65.32;99947.16;5012206;28;20030;-75
2022/02/21 03:16:41;;;;;;;19.33;3.28;;;;;;;4.14;65.83;99912.47;5013168;28;20439;-74
2022/02/21 03:19:06;;;;;;;19.52;3.22;;;;;;;4.13;64.60;99945.00;5013654;28;20033;-75
2022/02/21 03:21:32;;;;;;;18.38;3.05;;;;;;;4.12;64.64;99962.59;5011796;28;20514;-75
2022/02/21 03:23:57;;;;;;;19.48;3.40;;;;;;;4.13;65.02;99945.00;5013446;28;20118;-75
2022/02/21 03:26:23;;;;;;;22.23;3.63;;;;;;;4.12;64.40;99932.78;5011897;28;20030;-75
2022/02/21 03:28:48;;;;;;;15.50;2.90;;;;;;;4.12;63.31;99927.50;5013470;28;20045;-75
2022/02/21 03:31:13;;;;;;;17.13;3.17;;;;;;;4.05;64.76;99928.00;5011910;28;20054;-75
2022/02/21 03:33:39;;;;;;;19.20;3.20;;;;;;;4.03;63.71;99947.50;5012093;28;20054;-75
2022/02/21 03:36:04;;;;;;;16.77;3.38;;;;;;;4.10;62.57;99913.66;5012043;28;20057;-75
2022/02/21 03:38:30;;;;;;;20.40;2.90;;;;;;;4.11;61.98;99929.31;5013043;28;20038;-75
2022/02/21 03:40:55;;;;;;;13.18;2.33;;;;;;;4.12;61.07;99944.16;5012197;28;20041;-75
2022/02/21 03:43:20;;;;;;;23.65;4.75;;;;;;;4.09;61.06;99943.56;5013127;28;20087;-75
2022/02/21 03:45:46;;;;;;;17.20;3.25;;;;;;;4.09;62.75;99939.16;5011948;28;20094;-74
2022/02/21 03:48:11;;;;;;;17.35;2.72;;;;;;;4.11;63.30;99944.28;5011792;28;20454;-74
2022/02/21 03:50:37;;;;;;;17.27;3.95;;;;;;;4.12;64.27;99948.56;5013169;28;20111;-76
2022/02/21 03:53:02;;;;;;;15.38;3.17;;;;;;;4.09;64.73;99930.38;5013116;28;20030;-75
2022/02/21 03:55:28;;;;;;;13.13;2.25;;;;;;;4.05;65.15;99920.09;5011666;28;20125;-75
2022/02/21 03:57:53;;;;;;;16.35;3.65;;;;;;;3.97;65.55;99929.53;5012125;28;20459;-74
2022/02/21 04:00:19;;;;;;;19.52;3.30;;;;;;;3.93;64.40;99909.72;5012734;28;20038;-75
2022/02/21 04:02:44;;;;;;;14.02;2.50;;;;;;;3.87;63.84;99918.91;5013057;28;20502;-74
2022/02/21 04:05:10;;;;;;;14.80;2.90;;;;;;;3.83;64.50;99918.28;5012917;28;20030;-75
2022/02/21 04:07:41;;;;;;;17.65;2.83;;;;;;;3.87;64.81;99926.81;5012859;28;20112;-74
2022/02/21 04:10:07;;;;;;;20.27;2.63;;;;;;;3.88;64.27;99967.94;5015081;28;20167;-74
2022/02/21 04:12:32;;;;;;;10.95;2.28;;;;;;;3.88;63.31;99926.69;5016973;28;20470;-76
2022/02/21 04:14:58;;;;;;;17.48;2.90;;;;;;;3.89;63.91;99924.88;5016249;28;20037;-75
2022/02/21 04:17:24;;;;;;;16.42;3.28;;;;;;;3.89;64.68;99930.97;5016123;28;20041;-75
2022/02/21 04:19:49;;;;;;;15.20;4.45;;;;;;;3.86;65.61;99931.22;5016841;28;20030;-75
2022/02/21 04:22:15;;;;;;;17.98;2.80;;;;;;;3.84;65.39;99929.66;5016314;28;20423;-75
2022/02/21 04:24:40;;;;;;;25.75;3.80;;;;;;;3.81;66.49;99938.63;5016875;28;20056;-74
2022/02/21 04:27:07;;;;;;;21.10;2.90;;;;;;;3.81;67.02;99933.38;5016234;28;20037;-75
2022/02/21 04:29:32;;;;;;;18.70;3.92;;;;;;;3.80;67.42;99934.31;5016370;28;20033;-75
2022/02/21 04:31:58;;;;;;;12.73;3.00;;;;;;;3.87;67.14;99948.69;5016492;28;20351;-74
2022/02/21 04:34:23;;;;;;;18.65;3.00;;;;;;;3.91;67.40;99985.28;5016068;28;20059;-75
2022/02/21 04:36:49;;;;;;;18.92;3.33;;;;;;;3.96;67.06;99938.41;5016182;28;20127;-75
2022/02/21 04:39:15;;;;;;;15.45;2.92;;;;;;;3.99;67.04;99898.69;5016037;28;20088;-75
2022/02/21 04:41:40;;;;;;;17.23;3.13;;;;;;;3.98;66.92;99975.97;5015833;28;20458;-75
2022/02/21 04:44:06;;;;;;;17.63;2.97;;;;;;;3.98;67.73;99931.22;5015741;28;20034;-75
2022/02/21 04:46:31;;;;;;;22.88;3.17;;;;;;;3.93;68.18;99952.66;5015769;28;20147;-75
2022/02/21 04:48:57;;;;;;;20.20;2.80;;;;;;;3.91;67.45;99925.59;5014417;28;20113;-74
2022/02/21 04:51:22;;;;;;;26.13;4.20;;;;;;;3.82;68.07;99911.38;5016201;28;20054;-75
2022/02/21 04:53:48;;;;;;;22.13;2.83;;;;;;;3.80;68.57;99922.97;5015571;28;20072;-75
2022/02/21 04:56:13;;;;;;;17.35;2.83;;;;;;;3.73;68.73;99884.91;5015734;28;20477;-74
2022/02/21 04:58:39;;;;;;;19.90;2.90;;;;;;;3.66;69.59;99916.97;5015604;28;20367;-75
2022/02/21 05:01:05;;;;;;;15.73;3.47;;;;;;;3.63;69.71;99905.84;5015578;28;20069;-75
2022/02/21 05:03:30;;;;;;;21.17;3.78;;;;;;;3.60;69.66;99882.38;5015129;28;20474;-75
2022/02/21 05:05:55;;;;;;;22.88;3.80;;;;;;;3.59;69.44;99878.09;5015431;28;20034;-76
2022/02/21 05:08:21;;;;;;;22.05;3.03;;;;;;;3.60;68.90;99891.13;5014913;28;20041;-74
2022/02/21 05:10:46;;;;;;;13.48;2.78;;;;;;;3.68;67.57;99867.69;5013835;28;20037;-74
2022/02/21 05:13:11;;;;;;;26.20;4.35;;;;;;;3.67;68.49;99886.22;5014090;28;20030;-74
2022/02/21 05:15:37;;;;;;;24.92;3.85;;;;;;;3.67;67.93;99886.22;5015411;28;20026;-74
2022/02/21 05:18:03;;;;;;;16.92;3.08;;;;;;;3.65;67.42;99873.19;5030607;28;20386;-75
2022/02/21 05:20:28;;;;;;;21.30;3.97;;;;;;;3.65;68.07;99880.25;5015381;28;20072;-75
2022/02/21 05:22:54;;;;;;;21.75;3.55;;;;;;;3.57;68.63;99878.22;5015251;28;20026;-75
2022/02/21 05:25:19;;;;;;;18.60;3.08;;;;;;;3.51;68.82;99865.53;5015208;28;20034;-74
2022/02/21 05:27:44;;;;;;;21.98;3.45;;;;;;;3.54;67.93;99854.78;5015256;28;20033;-74
2022/02/21 05:30:13;;;;;;;24.63;4.40;;;;;;;3.58;66.73;99871.97;5015920;28;20067;-76
2022/02/21 05:32:39;;;;;;;13.00;2.05;;;;;;;3.67;65.98;99854.66;5015009;28;20033;-75
2022/02/21 05:35:05;;;;;;;21.60;3.33;;;;;;;3.66;66.25;99853.00;5015140;28;20034;-74
2022/02/21 05:37:30;;;;;;;20.45;2.85;;;;;;;3.63;67.30;99867.22;5013529;28;20430;-76
2022/02/21 05:39:55;;;;;;;19.05;3.15;;;;;;;3.63;66.41;99875.09;5015758;28;20042;-76
2022/02/21 05:42:21;;;;;;;22.58;3.67;;;;;;;3.66;66.98;99859.09;5014990;28;20577;-74
2022/02/21 05:44:46;;;;;;;19.20;3.53;;;;;;;3.66;67.31;99863.53;5014755;28;20041;-75
2022/02/21 05:47:12;;;;;;;17.67;3.30;;;;;;;3.60;68.12;99861.34;5014783;28;20454;-76
2022/02/21 05:49:37;;;;;;;21.13;4.57;;;;;;;3.60;68.78;99885.00;5014835;28;20030;-74
2022/02/21 05:52:03;;;;;;;27.40;4.00;;;;;;;3.62;69.28;99852.38;5014911;28;20050;-75
2022/02/21 05:54:29;;;;;;;31.77;3.88;;;;;;;3.59;69.46;99844.72;5014949;28;20034;-75
2022/02/21 05:56:55;;;;;;;17.10;3.42;;;;;;;3.55;69.52;99850.34;5014788;28;20501;-75
2022/02/21 05:59:21;;;;;;;14.85;3.30;;;;;;;3.51;69.53;99831.34;5013909;28;20370;-76
2022/02/21 06:01:46;;;;;;;18.17;2.95;;;;;;;3.51;69.40;99839.22;5015117;28;20080;-76
2022/02/21 06:04:12;;;;;;;13.48;2.60;;;;;;;3.54;70.12;99865.28;5013771;28;20326;-77
2022/02/21 06:06:37;;;;;;;19.55;3.47;;;;;;;3.55;69.60;99834.56;5014087;28;20034;-77
2022/02/21 06:09:03;;;;;;;16.00;3.05;;;;;;;3.51;70.12;99844.50;5014465;28;20045;-76
2022/02/21 06:11:29;;;;;;;20.67;3.00;;;;;;;3.43;70.50;99846.84;5013095;28;20069;-75
2022/02/21 06:13:55;;;;;;;22.00;3.33;;;;;;;3.38;70.89;99839.31;5013326;28;20069;-76
2022/02/21 06:16:21;;;;;;;19.65;3.17;;;;;;;3.42;70.26;99850.44;5014978;28;20406;-75
2022/02/21 06:18:46;;;;;;;17.48;3.30;;;;;;;3.45;70.08;99850.19;5013947;28;20084;-76
2022/02/21 06:21:12;;;;;;;26.95;3.90;;;;;;;3.48;70.69;99844.72;5014173;28;20498;-76
2022/02/21 06:23:38;;;;;;;23.85;3.47;;;;;;;3.51;70.20;99849.75;5014585;28;20037;-79
2022/02/21 06:26:04;;;;;;;22.58;3.80;;;;;;;3.50;70.93;99840.19;5014229;28;20371;-77
2022/02/21 06:28:29;;;;;;;29.85;3.67;;;;;;;3.43;71.61;99836.34;5013835;28;20459;-80
2022/02/21 06:30:55;;;;;;;22.75;3.05;;;;;;;3.43;71.54;99838.97;5014366;28;20080;-78
2022/02/21 06:33:20;;;;;;;26.77;3.17;;;;;;;3.39;71.67;99842.78;5013708;28;20034;-77
2022/02/21 06:35:46;;;;;;;24.33;3.63;;;;;;;3.40;71.43;99836.56;5013603;28;20160;-79
2022/02/21 06:38:12;;;;;;;17.25;3.33;;;;;;;3.52;70.82;99823.34;5013651;28;20343;-77
2022/02/21 06:40:37;;;;;;;27.00;4.07;;;;;;;3.62;70.84;99830.50;5014327;28;20378;-78
2022/02/21 06:43:03;;;;;;;30.27;3.95;;;;;;;3.76;70.40;99821.53;5013881;28;20030;-76
2022/02/21 06:45:29;;;;;;;24.48;3.58;;;;;;;3.82;69.84;99865.78;5014385;28;20471;-79
2022/02/21 06:47:55;;;;;;;30.90;3.53;;;;;;;3.85;70.33;99826.91;5012306;28;20108;-75
2022/02/21 06:50:22;;;;;;;23.10;3.88;;;;;;;3.88;70.25;99810.03;5014008;28;20054;-76
2022/02/21 06:52:47;;;;;;;17.50;3.08;;;;;;;3.93;70.59;99814.97;5013691;28;20470;-77
2022/02/21 06:55:13;;;;;;;29.65;4.80;;;;;;;3.92;71.38;99827.25;5013843;28;20117;-77
2022/02/21 06:57:44;;;;;;;19.92;3.15;;;;;;;3.95;70.89;99810.41;5013705;28;20061;-78
2022/02/21 07:00:11;;;;;;;20.60;3.67;;;;;;;3.88;71.70;99838.97;5012649;28;20113;-77
2022/02/21 07:02:36;;;;;;;31.58;4.00;;;;;;;3.91;71.43;99811.59;5012437;28;20066;-79
2022/02/21 07:05:03;;;;;;;22.50;3.67;;;;;;;3.93;71.04;99821.03;5013527;28;20030;-78
2022/02/21 07:07:28;;;;;;;21.23;3.70;;;;;;;3.96;70.85;99791.84;5013796;28;20037;-77
2022/02/21 07:09:53;;;;;;;24.20;3.63;;;;;;;4.02;70.42;99803.69;5013473;28;20086;-76
2022/02/21 07:12:19;;;;;;;16.38;3.42;;;;;;;4.11;70.02;99808.22;5012896;28;20339;-78
2022/02/21 07:14:44;;;;;;;23.08;4.03;;;;;;;4.18;69.45;99777.81;5012507;28;20038;-77
2022/02/21 07:17:09;;;;;;;15.57;3.20;;;;;;;4.30;68.46;99796.19;5013547;28;20093;-77
2022/02/21 07:19:35;;;;;;;15.20;3.13;;;;;;;4.38;68.69;99794.63;5014072;28;20382;-77
2022/02/21 07:22:00;;;;;;;27.95;4.25;;;;;;;4.55;67.53;99771.31;5013909;28;20402;-76
2022/02/21 07:24:26;;;;;;;17.85;3.08;;;;;;;4.68;67.60;99789.59;5013563;28;20116;-76
2022/02/21 07:26:51;;;;;;;22.23;3.53;;;;;;;4.73;67.09;99779.50;5012854;28;20091;-78
2022/02/21 07:29:17;;;;;;;24.15;3.35;;;;;;;4.76;67.27;99784.50;5029304;28;20068;-78
2022/02/21 07:31:42;;;;;;;30.80;3.83;;;;;;;4.70;68.07;99779.75;5013802;28;20447;-78
2022/02/21 07:34:07;;;;;;;22.70;3.95;;;;;;;4.73;68.00;99783.00;5013566;28;20488;-79
2022/02/21 07:36:34;;;;;;;23.08;3.50;;;;;;;4.70;68.37;99791.16;5013217;28;20116;-79
2022/02/21 07:39:01;;;;;;;19.75;3.30;;;;;;;4.68;69.22;99777.25;5013765;28;20034;-78
2022/02/21 07:41:27;;;;;;;23.20;3.60;;;;;;;4.62;70.10;99782.22;5013005;28;20026;-79
2022/02/21 07:43:52;;;;;;;24.75;4.45;;;;;;;4.61;69.84;99772.63;5013026;28;20040;-76
2022/02/21 07:46:17;;;;;;;26.17;4.53;;;;;;;4.58;70.99;99781.59;5016852;28;20072;-78
2022/02/21 07:48:43;;;;;;;26.48;4.25;;;;;;;4.49;72.46;99756.03;5016212;28;20352;-77
2022/02/21 07:51:08;;;;;;;29.63;4.32;;;;;;;4.40;73.24;99763.75;5021057;28;20061;-78
2022/02/21 07:53:34;;;;;;;25.55;3.33;;;;;;;4.28;75.33;99750.72;5015748;28;20037;-77
2022/02/21 07:56:00;;;;;;;33.60;4.65;;;;;;;4.15;76.44;99733.31;5015892;28;20037;-78
2022/02/21 07:58:25;;;;;;;32.33;4.68;;;;;;;4.10;76.17;99711.75;5015461;28;20511;-76
2022/02/21 08:00:51;;;;;;;30.77;4.35;;;;;;;4.04;77.89;99707.81;5015225;28;20121;-76
2022/02/21 08:03:16;;;;;;;31.77;5.20;;;;;;;3.99;77.70;99710.00;5015531;28;20041;-78
2022/02/21 08:05:42;;;;;;;29.40;4.70;;;;;;;3.93;78.85;99707.88;5015581;28;20030;-76
2022/02/21 08:08:09;;;;;;;30.35;4.38;;;;;;;3.82;79.90;99714.00;5014905;28;20497;-74
2022/02/21 08:10:35;;;;;;;39.90;4.88;;;;;;;3.71;81.34;99700.88;5015236;28;20049;-75
2022/02/21 08:13:01;;;;;;;22.05;4.53;;;;;;;3.58;83.30;99685.22;5015035;28;20026;-75
2022/02/21 08:15:27;;;;;;;27.40;4.50;;;;;;;3.48;84.33;99681.66;5014827;28;20030;-74
2022/02/21 08:17:53;;;;;;;33.30;4.25;;;;;;;3.41;85.31;99683.94;5014958;28;20463;-75
2022/02/21 08:20:23;;;;;;;24.73;5.00;;;;;;;3.36;85.63;99657.19;5015292;28;20045;-75
2022/02/21 08:22:49;;;;;;;31.10;5.15;;;;;;;3.41;86.03;99669.97;5015236;28;20030;-78
2022/02/21 08:25:16;;;;;;;23.08;3.97;;;;;;;3.44;86.48;99675.78;5015572;28;20116;-76
2022/02/21 08:27:43;;;;;;;32.65;4.25;;;;;;;3.39;86.53;99658.69;5014000;28;20037;-75
2022/02/21 08:30:15;;;;;;;35.05;4.50;;;;;;;3.41;86.74;99659.44;5015200;28;20092;-75
2022/02/21 08:32:40;;;;;;;24.48;4.25;;;;;;;3.54;86.28;99675.91;5014892;28;20494;-75
2022/02/21 08:35:07;;;;;;;43.15;5.00;;;;;;;3.74;84.38;99655.88;5015298;28;20034;-76
2022/02/21 08:37:32;;;;;;;21.33;4.20;;;;;;;3.87;83.96;99639.94;5015007;28;20125;-74
2022/02/21 08:39:58;;;;;;;34.92;4.28;;;;;;;3.94;83.92;99643.75;5015161;28;20072;-76
2022/02/21 08:42:23;;;;;;;35.83;4.70;;;;;;;4.00;83.76;99655.56;5015011;28;20036;-74
2022/02/21 08:44:49;;;;;;;33.08;4.97;;;;;;;4.13;82.15;99631.69;5014862;28;20071;-75
2022/02/21 08:47:16;;;;;;;26.58;4.22;;;;;;;4.21;82.17;99638.00;5014910;28;20382;-74
2022/02/21 08:52:22;;;;;;;36.83;6.15;;;;;;;4.36;80.13;99619.22;5109810;27;20133;-76
2022/02/21 08:54:48;;;;;;;26.13;5.40;;;;;;;4.41;80.40;99628.41;5088732;28;20045;-78
2022/02/21 08:57:13;;;;;;;35.28;5.32;;;;;;;4.47;80.49;99611.28;5089174;28;20044;-76
2022/02/21 08:59:39;;;;;;;34.80;5.60;;;;;;;4.53;79.85;99615.19;5071066;28;20032;-78
2022/02/21 09:02:04;;;;;;;28.30;5.80;;;;;;;4.52;80.38;99627.53;5088589;28;20550;-77
2022/02/21 09:04:30;;;;;;;33.00;5.45;;;;;;;4.49;80.80;99619.88;5089434;28;20025;-75
2022/02/21 09:06:55;;;;;;;30.98;4.47;;;;;;;4.49;80.56;99621.69;5088397;28;20052;-75
2022/02/21 09:09:22;;;;;;;30.60;5.38;;;;;;;4.50;80.93;99597.00;5089443;28;20492;-75
2022/02/21 09:11:49;;;;;;;31.05;5.18;;;;;;;4.50;81.09;99605.75;5088455;28;20039;-77
2022/02/21 09:14:15;;;;;;;34.97;6.25;;;;;;;4.57;80.54;99643.78;5088770;28;20043;-75
2022/02/21 09:16:40;;;;;;;32.50;5.82;;;;;;;4.57;80.87;99593.72;5071133;28;20032;-74
2022/02/21 09:19:05;;;;;;;30.40;5.95;;;;;;;4.47;81.92;99632.34;5088821;28;20031;-74
2022/02/21 09:21:32;;;;;;;38.25;5.70;;;;;;;4.30;84.24;99598.69;5071010;28;20389;-75
2022/02/21 09:23:57;;;;;;;37.28;5.65;;;;;;;4.14;85.58;99612.31;5088197;28;20092;-76
2022/02/21 09:26:23;;;;;;;38.65;6.10;;;;;;;4.07;86.17;99601.44;5088674;28;20071;-74
2022/02/21 09:28:49;;;;;;;37.90;5.28;;;;;;;4.05;87.39;99608.66;5088267;28;20032;-76
2022/02/21 09:31:14;;;;;;;28.90;5.82;;;;;;;4.06;87.47;99613.78;5088589;28;20432;-75
2022/02/21 09:33:40;;;;;;;36.55;6.43;;;;;;;4.09;87.51;99617.97;5088870;28;20389;-74
2022/02/21 09:36:06;;;;;;;42.65;5.82;;;;;;;4.14;87.18;99605.25;5088073;28;20032;-75
2022/02/21 09:38:31;;;;;;;44.35;5.78;;;;;;;4.27;86.86;99654.25;5088605;28;20036;-75
2022/02/21 09:40:57;;;;;;;34.78;5.28;;;;;;;4.37;85.55;99570.88;5087916;28;20032;-78
2022/02/21 09:43:26;;;;;;;37.15;5.72;;;;;;;4.41;85.78;99585.47;5088441;28;20538;-76
2022/02/21 09:46:00;;;;;;;38.25;6.25;;;;;;;4.44;85.52;99587.81;5088257;28;20067;-77
2022/02/21 09:48:27;;;;;;;32.38;4.65;;;;;;;4.59;84.18;99615.50;5053665;28;20028;-76
2022/02/21 09:50:58;;;;;;;40.50;5.97;;;;;;;4.70;83.34;99584.75;5081832;28;20057;-76
2022/02/21 09:53:25;;;;;;;32.42;5.53;;;;;;;4.74;83.65;99587.00;5068339;28;20029;-76
2022/02/21 09:55:51;;;;;;;28.75;5.32;;;;;;;4.81;83.58;99579.41;5067671;28;20036;-75
2022/02/21 09:58:16;;;;;;;36.78;5.15;;;;;;;4.92;82.30;99594.28;5067094;28;20477;-75
2022/02/21 10:00:41;;;;;;;36.13;5.75;;;;;;;5.00;82.44;99569.88;5067313;28;20134;-74
2022/02/21 10:03:07;;;;;;;33.88;5.28;;;;;;;5.08;81.61;99596.44;5038770;28;20037;-77
2022/02/21 10:05:33;;;;;;;47.95;6.28;;;;;;;5.06;83.09;99595.72;5036095;28;20047;-75
2022/02/21 10:08:00;;;;;;;36.40;5.65;;;;;;;4.99;83.58;99579.63;5053375;28;20040;-74
2022/02/21 10:10:26;;;;;;;26.00;5.07;;;;;;;4.83;85.44;99568.72;5053747;28;20125;-77
2022/02/21 10:13:00;;;;;;;36.28;5.70;;;;;;;4.66;86.50;99592.09;5053846;28;20032;-75
2022/02/21 10:15:34;;;;;;;42.97;6.55;;;;;;;4.53;88.45;99573.88;5054096;28;20116;-75
2022/02/21 10:18:16;;;;;;;49.60;7.00;;;;;;;4.54;88.69;99572.91;5053062;28;20039;-75
2022/02/21 10:20:57;;;;;;;42.05;5.88;;;;;;;4.63;87.97;99580.97;5053879;28;20073;-82
2022/02/21 10:23:23;;;;;;;43.55;6.72;;;;;;;4.68;88.20;99592.81;5053674;28;20029;-74
2022/02/21 10:26:05;;;;;;;37.55;5.95;;;;;;;4.71;88.23;99587.25;5053528;28;20025;-73
2022/02/21 10:28:35;;;;;;;45.33;6.45;;;;;;;4.84;87.45;99588.88;5053530;28;20036;-75
2022/02/21 10:31:28;;;;;;;37.58;5.15;;;;;;;4.80;89.27;99604.09;5053004;28;20035;-76
2022/02/21 10:34:06;;;;;;;39.13;5.38;;;;;;;4.82;88.49;99578.47;5049874;28;20040;-75
2022/02/21 10:36:35;;;;;;;45.85;6.38;;;;;;;4.91;88.35;99585.56;5053828;28;20036;-75
2022/02/21 10:39:07;;;;;;;37.30;5.13;;;;;;;5.01;88.56;99597.94;5035306;28;20064;-74
2022/02/21 10:41:53;;;;;;;28.13;5.30;;;;;;;5.01;88.79;99608.47;5053509;28;20139;-74
2022/02/21 10:44:22;;;;;;;38.33;5.32;;;;;;;4.95;89.88;99596.66;5052558;28;20055;-76
2022/02/21 10:47:17;;;;;;;38.60;6.22;;;;;;;4.89;91.65;99610.38;5053452;28;20471;-75
2022/02/21 10:49:51;;;;;;;37.42;5.03;;;;;;;4.96;90.43;99637.88;5053900;28;20071;-75
2022/02/21 10:52:25;;;;;;;41.60;5.55;;;;;;;5.06;89.74;99624.72;5053100;28;20080;-74
2022/02/21 10:54:52;;;;;;;42.75;5.35;;;;;;;5.10;89.78;99618.22;5053960;28;20107;-74
2022/02/21 10:57:18;;;;;;;27.10;5.35;;;;;;;5.25;88.86;99622.13;5053252;28;20041;-74
2022/02/21 10:59:46;;;;;;;29.20;5.38;;;;;;;5.30;89.18;99617.31;5053507;28;20079;-75
2022/02/21 11:02:15;;;;;;;42.63;6.63;;;;;;;5.41;89.03;99626.09;5052998;28;20033;-73
2022/02/21 11:04:42;;;;;;;31.58;4.53;;;;;;;5.48;89.00;99624.59;5053161;28;20035;-74
2022/02/21 11:07:08;;;;;;;33.40;5.05;;;;;;;5.62;87.84;99623.34;5052654;28;20037;-75
2022/02/21 11:09:34;;;;;;;28.17;5.45;;;;;;;5.76;87.13;99643.22;5053367;28;20037;-75
2022/02/21 11:12:02;;;;;;;40.97;5.50;;;;;;;5.70;88.01;99641.94;5053321;28;20025;-75
2022/02/21 11:14:30;;;;;;;29.38;4.88;;;;;;;5.67;88.11;99638.78;5052263;28;20025;-74
2022/02/21 11:16:58;;;;;;;36.45;5.18;;;;;;;5.63;88.72;99652.25;5053406;28;20083;-75
2022/02/21 11:19:24;;;;;;;36.83;6.40;;;;;;;5.66;89.19;99624.75;5052987;28;20037;-74
2022/02/21 11:21:50;;;;;;;41.92;6.18;;;;;;;5.73;89.18;99640.84;5052667;28;20033;-75
2022/02/21 11:24:26;;;;;;;36.63;5.82;;;;;;;5.86;88.01;99661.72;5052138;28;20503;-74
2022/02/21 11:27:20;;;;;;;26.65;4.88;;;;;;;6.04;86.72;99680.38;5052486;28;20128;-75
2022/02/21 11:29:56;;;;;;;29.58;5.38;;;;;;;6.14;86.08;99663.56;5030972;28;20045;-75
2022/02/21 11:32:23;;;;;;;34.75;5.57;;;;;;;6.25;85.27;99662.56;5034111;28;20033;-74
2022/02/21 11:35:16;;;;;;;41.05;5.15;;;;;;;6.35;84.92;99652.03;5052563;28;20036;-75